Broadmeadows, Australia
Current Conditions -  °F | °C
As of 10:00 AM on Monday 22 Dec 2014 (Local Time) from YMEN Reporting Station
Clear Clear  
Wind Chill: 72°   Ceiling: Unl
Heat Index: 72°   Visibility: 6mi
Dew Point: 59°   Wind: 5mph
Humidity: 64%   Direction: 180°S
Pressure: 29.91"   Gusts: NA
Location:  37.68°S, 144.92°E
Report Text: YMEN 212300Z AUTO 18004KT 9999 // NCD 22/15 Q1013
Loading
Personal Weather Stations






























Interactive Weather Map New forecast layout! Learn more

10-Day Weather Forecast

Advertisements
Track Severe Weather on mobile